createdAt,value
2019-04-14T00:00:36.298Z,0.60
2019-04-14T00:03:21.590Z,0.60
2019-04-14T00:05:51.708Z,0.50
2019-04-14T00:08:19.793Z,0.40
2019-04-14T00:10:47.184Z,0.30
2019-04-14T00:13:15.241Z,0.20
2019-04-14T00:15:46.744Z,0.10
2019-04-14T00:18:11.822Z,0.20
2019-04-14T00:20:39.069Z,0.10
2019-04-14T00:23:06.579Z,0.10
2019-04-14T00:25:34.780Z,0.10
2019-04-14T00:28:02.934Z,0.10
2019-04-14T00:30:30.213Z,0.00
2019-04-14T00:32:59.642Z,0.00
2019-04-14T00:35:36.426Z,0.00
2019-04-14T00:38:23.764Z,0.00
2019-04-14T00:41:13.757Z,0.10
2019-04-14T00:43:59.578Z,0.10
2019-04-14T00:46:34.201Z,0.10
2019-04-14T00:49:02.705Z,0.00
2019-04-14T00:51:30.879Z,0.00
2019-04-14T00:53:58.155Z,-0.10
2019-04-14T00:56:25.840Z,-0.10
2019-04-14T00:58:53.900Z,-0.10
2019-04-14T01:01:21.885Z,-0.10
2019-04-14T01:03:48.929Z,0.00
2019-04-14T01:06:16.384Z,0.00
2019-04-14T01:08:44.561Z,0.00
2019-04-14T01:11:11.773Z,0.00
2019-04-14T01:13:39.766Z,-0.10
2019-04-14T01:16:13.340Z,-0.20
2019-04-14T01:18:36.439Z,-0.10
2019-04-14T01:21:05.095Z,-0.20
2019-04-14T01:23:33.049Z,-0.10
2019-04-14T01:26:00.679Z,-0.10
2019-04-14T01:28:28.589Z,-0.20
2019-04-14T01:30:56.610Z,-0.20
2019-04-14T01:33:23.590Z,-0.20
2019-04-14T01:35:50.999Z,-0.30
2019-04-14T01:38:19.004Z,-0.20
2019-04-14T01:40:46.656Z,-0.20
2019-04-14T01:43:14.597Z,-0.10
2019-04-14T01:45:42.537Z,-0.20
2019-04-14T01:48:10.484Z,-0.20
2019-04-14T01:50:47.408Z,-0.10
2019-04-14T01:53:20.989Z,-0.20
2019-04-14T01:55:56.996Z,-0.20
2019-04-14T01:58:29.287Z,-0.20
2019-04-14T02:01:06.252Z,-0.20
2019-04-14T02:03:34.433Z,-0.10
2019-04-14T02:06:02.524Z,-0.10
2019-04-14T02:08:30.579Z,-0.20
2019-04-14T02:10:58.700Z,-0.20
2019-04-14T02:13:26.822Z,-0.30
2019-04-14T02:15:54.954Z,-0.30
2019-04-14T02:18:22.928Z,-0.40
2019-04-14T02:20:51.076Z,-0.40
2019-04-14T02:23:19.246Z,-0.30
2019-04-14T02:25:47.173Z,-0.30
2019-04-14T02:28:15.479Z,-0.30
2019-04-14T02:30:54.044Z,-0.20
2019-04-14T02:33:38.931Z,-0.20
2019-04-14T02:36:14.098Z,-0.20
2019-04-14T02:38:43.484Z,-0.10
2019-04-14T02:46:04.103Z,-0.10
2019-04-14T02:51:04.271Z,-0.20
2019-04-14T02:53:32.611Z,-0.10
2019-04-14T02:56:05.475Z,-0.10
2019-04-14T02:58:30.576Z,-0.10
2019-04-14T03:00:58.488Z,-0.20
2019-04-14T03:05:53.141Z,-0.20
2019-04-14T03:10:47.999Z,-0.30
2019-04-14T03:15:53.813Z,-0.40
2019-04-14T03:18:44.000Z,-0.40
2019-04-14T03:21:36.325Z,-0.40
2019-04-14T03:24:29.220Z,-0.40
2019-04-14T03:26:56.208Z,-0.30
2019-04-14T03:29:43.440Z,-0.30
2019-04-14T03:32:14.157Z,-0.40
2019-04-14T03:39:31.349Z,-0.40
2019-04-14T03:41:52.778Z,-0.40
2019-04-14T03:44:28.642Z,-0.40
2019-04-14T03:47:21.795Z,-0.50
2019-04-14T03:49:37.335Z,-0.40
2019-04-14T03:51:50.235Z,-0.40
2019-04-14T03:54:09.712Z,-0.40
2019-04-14T03:56:46.336Z,-0.40
2019-04-14T03:59:15.105Z,-0.40
2019-04-14T04:01:43.428Z,-0.40
2019-04-14T04:04:11.771Z,-0.40
2019-04-14T04:06:39.937Z,-0.30
2019-04-14T04:09:08.218Z,-0.30
2019-04-14T04:11:36.542Z,-0.40
2019-04-14T04:14:03.821Z,-0.40
2019-04-14T04:16:48.994Z,-0.40
2019-04-14T04:19:25.112Z,-0.30
2019-04-14T04:22:10.635Z,-0.30
2019-04-14T04:24:49.932Z,-0.20
2019-04-14T04:27:54.829Z,-0.20
2019-04-14T04:30:30.452Z,-0.20
2019-04-14T04:33:10.698Z,-0.20
2019-04-14T04:35:45.756Z,-0.20
2019-04-14T04:38:35.594Z,-0.20
2019-04-14T04:41:03.656Z,-0.10
2019-04-14T04:43:31.845Z,-0.10
2019-04-14T04:45:58.843Z,0.00
2019-04-14T04:48:26.406Z,0.30
2019-04-14T04:50:54.236Z,1.20
2019-04-14T04:53:22.306Z,1.70
2019-04-14T04:55:50.363Z,1.90
2019-04-14T04:58:17.382Z,1.90
2019-04-14T05:00:47.285Z,2.10
2019-04-14T05:03:13.060Z,2.20
2019-04-14T05:06:09.122Z,2.10
2019-04-14T05:08:39.149Z,2.20
2019-04-14T05:11:14.356Z,2.40
2019-04-14T05:13:43.087Z,2.20
2019-04-14T05:16:10.654Z,2.20
2019-04-14T05:18:37.843Z,2.00
2019-04-14T05:21:06.039Z,1.80
2019-04-14T05:23:34.232Z,1.80
2019-04-14T05:26:01.222Z,1.70
2019-04-14T05:28:28.850Z,1.80
2019-04-14T05:30:56.863Z,1.90
2019-04-14T05:33:25.004Z,2.00
2019-04-14T05:35:53.181Z,2.10
2019-04-14T05:38:21.192Z,2.10
2019-04-14T05:40:49.685Z,2.20
2019-04-14T05:43:28.189Z,2.10
2019-04-14T05:45:45.794Z,2.20
2019-04-14T05:48:13.855Z,2.20
2019-04-14T05:50:42.167Z,2.30
2019-04-14T05:53:09.092Z,2.20
2019-04-14T05:55:37.271Z,2.30
2019-04-14T05:58:05.607Z,2.20
2019-04-14T06:00:34.138Z,2.20
2019-04-14T06:03:01.714Z,2.50
2019-04-14T06:05:29.631Z,2.40
2019-04-14T06:07:56.623Z,2.80
2019-04-14T06:10:23.462Z,2.70
2019-04-14T06:12:50.401Z,2.80
2019-04-14T06:15:17.401Z,2.90
2019-04-14T06:17:44.271Z,2.70
2019-04-14T06:20:11.364Z,2.80
2019-04-14T06:22:38.389Z,2.80
2019-04-14T06:25:06.282Z,2.90
2019-04-14T06:27:34.208Z,3.10
2019-04-14T06:30:07.394Z,3.00
2019-04-14T06:32:40.350Z,2.90
2019-04-14T06:35:19.751Z,2.80
2019-04-14T06:38:05.833Z,2.90
2019-04-14T06:40:37.087Z,3.10
2019-04-14T06:43:03.962Z,3.20
2019-04-14T06:45:30.786Z,3.30
2019-04-14T06:47:57.925Z,3.40
2019-04-14T06:50:24.826Z,3.40
2019-04-14T06:52:52.346Z,3.40
2019-04-14T06:55:19.262Z,3.60
2019-04-14T06:57:46.062Z,3.60
2019-04-14T07:00:13.322Z,3.60
2019-04-14T07:02:40.142Z,3.70
2019-04-14T07:05:07.137Z,3.60
2019-04-14T07:07:34.209Z,3.60
2019-04-14T07:10:01.097Z,3.70
2019-04-14T07:12:28.129Z,3.80
2019-04-14T07:14:55.166Z,3.90
2019-04-14T07:17:22.053Z,4.00
2019-04-14T07:20:01.020Z,4.10
2019-04-14T07:22:17.614Z,4.30
2019-04-14T07:24:44.422Z,4.40
2019-04-14T07:27:11.366Z,4.60
2019-04-14T07:29:47.066Z,5.00
2019-04-14T07:32:32.433Z,4.90
2019-04-14T07:35:08.586Z,5.00
2019-04-14T07:37:54.106Z,5.00
2019-04-14T07:40:30.343Z,5.20
2019-04-14T07:43:09.369Z,5.10
2019-04-14T07:45:48.276Z,5.30
2019-04-14T07:48:20.726Z,5.50
2019-04-14T07:51:11.465Z,5.50
2019-04-14T07:53:48.774Z,5.80
2019-04-14T07:56:50.641Z,6.10
2019-04-14T07:59:25.966Z,5.90
2019-04-14T08:02:00.203Z,5.90
2019-04-14T08:04:32.625Z,6.00
2019-04-14T08:06:59.885Z,6.10
2019-04-14T08:09:26.795Z,6.20
2019-04-14T08:11:53.723Z,6.30
2019-04-14T08:14:20.577Z,6.10
2019-04-14T08:16:47.628Z,6.30
2019-04-14T08:19:15.658Z,6.30
2019-04-14T08:21:42.606Z,6.50
2019-04-14T08:24:09.550Z,6.70
2019-04-14T08:26:36.515Z,6.80
2019-04-14T08:29:03.526Z,6.70
2019-04-14T08:31:30.435Z,6.70
2019-04-14T08:33:57.273Z,6.70
2019-04-14T08:36:24.170Z,6.80
2019-04-14T08:38:50.961Z,6.80
2019-04-14T08:41:17.793Z,7.30
2019-04-14T08:44:16.149Z,7.70
2019-04-14T08:47:01.227Z,7.70
2019-04-14T08:49:42.631Z,7.70
2019-04-14T08:54:59.049Z,8.00
2019-04-14T08:57:48.094Z,8.10
2019-04-14T09:00:33.703Z,8.20
2019-04-14T09:03:32.328Z,8.00
2019-04-14T09:06:06.472Z,8.10
2019-04-14T09:08:55.225Z,8.00
2019-04-14T09:11:28.422Z,7.90
2019-04-14T09:13:55.258Z,8.10
2019-04-14T09:16:22.122Z,8.00
2019-04-14T09:18:49.050Z,8.10
2019-04-14T09:21:16.000Z,8.30
2019-04-14T09:23:42.944Z,8.20
2019-04-14T09:26:09.966Z,8.10
2019-04-14T09:28:36.993Z,8.20
2019-04-14T09:31:03.796Z,8.30
2019-04-14T09:33:30.757Z,8.40
2019-04-14T09:35:57.682Z,8.60
2019-04-14T09:38:26.650Z,8.40
2019-04-14T09:40:53.455Z,8.90
2019-04-14T09:43:20.481Z,8.90
2019-04-14T09:45:47.414Z,9.00
2019-04-14T09:48:14.502Z,8.90
2019-04-14T09:50:41.321Z,8.60
2019-04-14T09:53:08.366Z,8.30
2019-04-14T09:55:35.177Z,8.20
2019-04-14T09:58:02.101Z,8.50
2019-04-14T10:00:29.169Z,8.50
2019-04-14T10:02:56.278Z,8.70
2019-04-14T10:05:23.068Z,8.60
2019-04-14T10:07:49.914Z,8.60
2019-04-14T10:10:16.949Z,8.80
2019-04-14T10:12:46.384Z,8.90
2019-04-14T10:15:13.529Z,8.50
2019-04-14T10:17:40.778Z,8.60
2019-04-14T10:20:07.814Z,8.80
2019-04-14T10:22:34.636Z,9.30
2019-04-14T10:25:01.704Z,9.40
2019-04-14T10:27:28.697Z,9.30
2019-04-14T10:29:55.509Z,9.60
2019-04-14T10:32:22.394Z,9.60
2019-04-14T10:34:49.233Z,9.60
2019-04-14T10:37:16.038Z,9.60
2019-04-14T10:39:42.842Z,9.50
2019-04-14T10:42:09.703Z,9.70
2019-04-14T10:44:36.514Z,9.90
2019-04-14T10:47:03.616Z,10.00
2019-04-14T10:49:30.670Z,10.20
2019-04-14T10:51:57.683Z,9.80
2019-04-14T10:54:24.488Z,9.80
2019-04-14T10:56:51.459Z,9.80
2019-04-14T10:59:18.452Z,9.90
2019-04-14T11:01:45.284Z,10.10
2019-04-14T11:04:12.086Z,10.10
2019-04-14T11:06:42.165Z,10.10
2019-04-14T11:09:13.241Z,9.80
2019-04-14T11:11:40.233Z,9.60
2019-04-14T11:14:07.030Z,9.60
2019-04-14T11:16:33.846Z,9.60
2019-04-14T11:19:00.685Z,9.70
2019-04-14T11:21:27.469Z,9.90
2019-04-14T11:23:54.310Z,9.60
2019-04-14T11:26:21.089Z,9.80
2019-04-14T11:28:47.892Z,9.80
2019-04-14T11:31:16.728Z,9.80
2019-04-14T11:34:00.148Z,10.10
2019-04-14T11:36:58.993Z,9.90
2019-04-14T11:39:25.869Z,9.70
2019-04-14T11:41:52.792Z,10.10
2019-04-14T11:44:22.467Z,10.20
2019-04-14T11:46:49.497Z,10.10
2019-04-14T11:49:16.896Z,10.00
2019-04-14T11:51:54.768Z,9.90
2019-04-14T11:54:12.795Z,9.70
2019-04-14T11:56:39.807Z,10.50
2019-04-14T11:59:06.714Z,10.40
2019-04-14T12:01:46.364Z,10.50
2019-04-14T12:04:24.021Z,10.60
2019-04-14T12:07:13.033Z,10.70
2019-04-14T12:09:46.726Z,10.30
2019-04-14T12:12:13.621Z,10.20
2019-04-14T12:14:43.436Z,10.60
2019-04-14T12:17:10.283Z,10.30
2019-04-14T12:19:37.102Z,10.10
2019-04-14T12:22:08.582Z,10.20
2019-04-14T12:24:32.949Z,10.10
2019-04-14T12:26:59.866Z,10.30
2019-04-14T12:29:26.797Z,10.20
2019-04-14T12:31:55.276Z,10.10
2019-04-14T12:34:22.412Z,10.30
2019-04-14T12:36:49.481Z,10.20
2019-04-14T12:39:22.322Z,10.20
2019-04-14T12:41:57.163Z,10.40
2019-04-14T12:44:53.121Z,10.10
2019-04-14T12:47:42.249Z,9.90
2019-04-14T12:50:17.654Z,10.30
2019-04-14T12:52:44.485Z,10.40
2019-04-14T12:55:11.379Z,10.20
2019-04-14T12:57:46.506Z,10.00
2019-04-14T13:00:35.014Z,10.10
2019-04-14T13:03:02.101Z,10.10
2019-04-14T13:05:29.133Z,10.30
2019-04-14T13:07:56.366Z,10.30
2019-04-14T13:10:23.410Z,10.40
2019-04-14T13:12:50.327Z,10.60
2019-04-14T13:15:17.626Z,10.20
2019-04-14T13:17:44.568Z,10.10
2019-04-14T13:20:11.662Z,10.20
2019-04-14T13:22:38.630Z,10.30
2019-04-14T13:25:05.996Z,10.20
2019-04-14T13:27:32.871Z,10.10
2019-04-14T13:29:59.945Z,10.10
2019-04-14T13:32:35.945Z,10.10
2019-04-14T13:34:55.479Z,10.00
2019-04-14T13:37:22.419Z,10.20
2019-04-14T13:39:49.411Z,9.80
2019-04-14T13:42:16.350Z,9.80
2019-04-14T13:44:43.290Z,9.90
2019-04-14T13:47:10.095Z,10.00
2019-04-14T13:49:36.990Z,10.10
2019-04-14T13:52:04.067Z,10.20
2019-04-14T13:54:30.878Z,10.10
2019-04-14T13:56:57.863Z,9.90
2019-04-14T13:59:25.442Z,9.80
2019-04-14T14:01:52.326Z,9.70
2019-04-14T14:04:19.196Z,9.80
2019-04-14T14:06:46.094Z,9.90
2019-04-14T14:09:13.116Z,9.80
2019-04-14T14:11:53.415Z,9.80
2019-04-14T14:14:39.969Z,9.70
2019-04-14T14:17:17.515Z,9.80
2019-04-14T14:19:52.114Z,10.00
2019-04-14T14:22:29.339Z,9.90
2019-04-14T14:25:04.030Z,9.80
2019-04-14T14:27:30.948Z,9.60
2019-04-14T14:29:57.970Z,9.80
2019-04-14T14:32:33.257Z,9.70
2019-04-14T14:35:00.103Z,9.80
2019-04-14T14:37:27.038Z,9.70
2019-04-14T14:39:53.938Z,9.60
2019-04-14T14:42:20.851Z,9.60
2019-04-14T14:44:53.145Z,9.70
2019-04-14T14:47:23.079Z,9.70
2019-04-14T14:50:10.169Z,9.70
2019-04-14T14:52:38.258Z,9.40
2019-04-14T14:55:05.510Z,9.30
2019-04-14T14:57:32.397Z,9.10
2019-04-14T14:59:59.240Z,9.10
2019-04-14T15:02:26.313Z,9.10
2019-04-14T15:04:53.206Z,9.30
2019-04-14T15:07:21.242Z,9.00
2019-04-14T15:09:48.173Z,9.00
2019-04-14T15:12:14.988Z,9.20
2019-04-14T15:14:41.934Z,9.20
2019-04-14T15:17:09.384Z,9.10
2019-04-14T15:19:36.289Z,9.10
2019-04-14T15:22:03.744Z,9.20
2019-04-14T15:24:30.745Z,9.00
2019-04-14T15:26:57.587Z,8.90
2019-04-14T15:29:24.489Z,8.90
2019-04-14T15:31:51.310Z,8.90
2019-04-14T15:34:18.255Z,8.70
2019-04-14T15:36:45.071Z,8.50
2019-04-14T15:39:12.175Z,8.50
2019-04-14T15:41:39.235Z,8.50
2019-04-14T15:44:06.065Z,8.40
2019-04-14T15:46:33.120Z,8.30
2019-04-14T15:49:00.053Z,8.20
2019-04-14T15:51:27.068Z,8.20
2019-04-14T15:53:53.966Z,8.10
2019-04-14T15:56:32.502Z,8.10
2019-04-14T15:59:04.648Z,8.00
2019-04-14T16:01:59.897Z,8.00
2019-04-14T16:04:33.050Z,8.10
2019-04-14T16:07:19.589Z,8.10
2019-04-14T16:09:55.300Z,8.00
2019-04-14T16:12:34.698Z,7.90
2019-04-14T16:15:21.378Z,7.80
2019-04-14T16:18:08.574Z,7.70
2019-04-14T16:20:37.771Z,7.60
2019-04-14T16:23:04.649Z,7.50
2019-04-14T16:25:54.689Z,7.50
2019-04-14T16:28:29.698Z,7.50
2019-04-14T16:31:13.594Z,7.50
2019-04-14T16:33:58.469Z,7.40
2019-04-14T16:36:26.237Z,7.30
2019-04-14T16:38:53.268Z,7.30
2019-04-14T16:41:20.344Z,7.20
2019-04-14T16:43:47.419Z,7.10
2019-04-14T16:46:14.384Z,7.10
2019-04-14T16:48:41.333Z,7.10
2019-04-14T16:51:11.846Z,7.00
2019-04-14T16:53:40.471Z,7.00
2019-04-14T16:56:24.649Z,7.00
2019-04-14T16:59:03.658Z,6.90
2019-04-14T17:01:36.358Z,6.80
2019-04-14T17:04:03.460Z,6.80
2019-04-14T17:06:30.370Z,6.70
2019-04-14T17:08:57.278Z,6.70
2019-04-14T17:11:24.158Z,6.70
2019-04-14T17:13:59.800Z,6.60
2019-04-14T17:16:40.030Z,6.50
2019-04-14T17:19:11.009Z,6.40
2019-04-14T17:21:41.621Z,6.30
2019-04-14T17:24:39.826Z,6.30
2019-04-14T17:27:25.183Z,6.20
2019-04-14T17:30:11.678Z,6.20
2019-04-14T17:32:55.692Z,6.10
2019-04-14T17:35:47.908Z,6.00
2019-04-14T17:38:23.467Z,5.90
2019-04-14T17:41:12.493Z,5.80
2019-04-14T17:43:53.006Z,5.80
2019-04-14T17:46:38.137Z,5.70
2019-04-14T17:49:30.650Z,5.60
2019-04-14T17:52:17.094Z,5.50
2019-04-14T17:55:18.768Z,5.40
2019-04-14T17:58:03.574Z,5.20
2019-04-14T18:00:46.214Z,5.10
2019-04-14T18:03:44.895Z,5.10
2019-04-14T18:06:33.941Z,4.90
2019-04-14T18:09:20.509Z,4.80
2019-04-14T18:12:01.530Z,4.70
2019-04-14T18:14:50.537Z,4.60
2019-04-14T18:17:37.181Z,4.60
2019-04-14T18:20:07.166Z,4.50
2019-04-14T18:22:34.070Z,4.40
2019-04-14T18:25:00.993Z,4.40
2019-04-14T18:27:28.583Z,4.30
2019-04-14T18:30:16.578Z,4.20
2019-04-14T18:33:05.873Z,4.20
2019-04-14T18:36:07.133Z,4.10
2019-04-14T18:38:58.555Z,4.00
2019-04-14T18:41:57.483Z,3.90
2019-04-14T18:44:58.821Z,3.80
2019-04-14T18:47:34.136Z,3.70
2019-04-14T18:50:13.623Z,3.60
2019-04-14T18:52:54.421Z,3.60
2019-04-14T18:55:39.615Z,3.50
2019-04-14T18:58:21.505Z,3.40
2019-04-14T19:00:51.457Z,3.30
2019-04-14T19:03:18.362Z,3.20
2019-04-14T19:05:45.238Z,3.20
2019-04-14T19:08:12.062Z,3.20
2019-04-14T19:10:38.933Z,3.10
2019-04-14T19:13:17.727Z,3.10
2019-04-14T19:16:04.168Z,3.20
2019-04-14T19:18:42.671Z,3.10
2019-04-14T19:21:12.145Z,3.10
2019-04-14T19:23:39.135Z,3.00
2019-04-14T19:26:06.137Z,3.00
2019-04-14T19:28:32.947Z,3.00
2019-04-14T19:30:59.906Z,3.00
2019-04-14T19:33:26.737Z,3.00
2019-04-14T19:35:53.746Z,3.00
2019-04-14T19:38:20.619Z,3.00
2019-04-14T19:40:47.550Z,2.90
2019-04-14T19:43:23.722Z,2.80
2019-04-14T19:45:43.026Z,2.80
2019-04-14T19:48:09.949Z,2.90
2019-04-14T19:50:36.818Z,2.80
2019-04-14T19:53:03.797Z,2.70
2019-04-14T19:55:30.614Z,2.60
2019-04-14T19:57:57.505Z,2.60
2019-04-14T20:00:24.285Z,2.50
2019-04-14T20:02:51.079Z,2.50
2019-04-14T20:05:17.925Z,2.50
2019-04-14T20:07:44.961Z,2.40
2019-04-14T20:10:12.177Z,2.30
2019-04-14T20:12:39.154Z,2.20
2019-04-14T20:15:07.301Z,2.20
2019-04-14T20:17:52.593Z,2.30
2019-04-14T20:20:39.041Z,2.20
2019-04-14T20:23:24.254Z,2.20
2019-04-14T20:26:16.630Z,2.10
2019-04-14T20:28:57.490Z,2.10
2019-04-14T20:31:44.044Z,2.10
2019-04-14T20:34:11.046Z,2.10
2019-04-14T20:36:37.962Z,2.10
2019-04-14T20:39:09.679Z,2.00
2019-04-14T20:41:36.693Z,2.00
2019-04-14T20:44:03.689Z,1.90
2019-04-14T20:46:30.521Z,2.00
2019-04-14T20:48:57.338Z,2.00
2019-04-14T20:51:24.233Z,1.90
2019-04-14T20:53:51.148Z,1.90
2019-04-14T20:56:18.195Z,1.90
2019-04-14T20:58:45.078Z,1.80
2019-04-14T21:01:13.221Z,1.80
2019-04-14T21:03:59.781Z,1.80
2019-04-14T21:06:44.897Z,1.80
2019-04-14T21:09:15.431Z,1.70
2019-04-14T21:12:08.385Z,1.70
2019-04-14T21:14:53.817Z,1.60
2019-04-14T21:17:29.927Z,1.60
2019-04-14T21:20:12.084Z,1.50
2019-04-14T21:22:54.398Z,1.40
2019-04-14T21:25:44.297Z,1.30
2019-04-14T21:28:20.925Z,1.30
2019-04-14T21:30:55.794Z,1.20
2019-04-14T21:33:40.872Z,1.10
2019-04-14T21:36:14.974Z,1.00
2019-04-14T21:39:13.299Z,0.90
2019-04-14T21:41:40.804Z,1.00
2019-04-14T21:44:07.690Z,1.00
2019-04-14T21:46:34.467Z,1.00
2019-04-14T21:49:01.462Z,1.00
2019-04-14T21:51:46.922Z,1.00
2019-04-14T21:54:13.926Z,1.00
2019-04-14T21:56:41.206Z,0.90
2019-04-14T21:59:19.121Z,0.90
2019-04-14T22:02:20.773Z,0.80
2019-04-14T22:05:06.845Z,0.80
2019-04-14T22:07:40.422Z,0.80
2019-04-14T22:10:14.382Z,0.70
2019-04-14T22:12:41.408Z,0.70
2019-04-14T22:15:08.597Z,0.60
2019-04-14T22:17:35.534Z,0.60
2019-04-14T22:20:02.681Z,0.50
2019-04-14T22:22:29.469Z,0.50
2019-04-14T22:24:56.365Z,0.60
2019-04-14T22:27:23.942Z,0.60
2019-04-14T22:29:50.922Z,0.60
2019-04-14T22:32:17.709Z,0.50
2019-04-14T22:34:44.690Z,0.40
2019-04-14T22:37:11.622Z,0.40
2019-04-14T22:39:39.352Z,0.40
2019-04-14T22:42:06.625Z,0.30
2019-04-14T22:44:33.546Z,0.20
2019-04-14T22:47:00.343Z,0.20
2019-04-14T22:49:27.129Z,0.20
2019-04-14T22:51:54.090Z,0.20
2019-04-14T22:54:21.777Z,0.10
2019-04-14T22:56:48.561Z,0.20
2019-04-14T22:59:15.477Z,0.20
2019-04-14T23:01:44.802Z,0.20
2019-04-14T23:04:22.109Z,0.20
2019-04-14T23:07:11.515Z,0.20
2019-04-14T23:09:45.416Z,0.20
2019-04-14T23:12:30.617Z,0.40
2019-04-14T23:15:19.854Z,0.50
2019-04-14T23:17:59.778Z,0.60
2019-04-14T23:20:45.153Z,0.70
2019-04-14T23:23:46.873Z,0.60
2019-04-14T23:26:13.769Z,0.60
2019-04-14T23:28:40.679Z,0.60
2019-04-14T23:31:07.477Z,0.60
2019-04-14T23:33:34.388Z,0.60
2019-04-14T23:36:01.282Z,0.60
2019-04-14T23:38:28.301Z,0.50
2019-04-14T23:40:55.105Z,0.40
2019-04-14T23:43:22.009Z,0.30
2019-04-14T23:45:48.921Z,0.20
2019-04-14T23:48:15.718Z,0.20
2019-04-14T23:50:42.517Z,0.10
2019-04-14T23:53:10.728Z,0.10
2019-04-14T23:55:37.541Z,0.00
2019-04-14T23:58:04.454Z,0.00
